Darstellungsparameter: Aktuell verwendete Einstellungen:
Skalierung der Graphiken ... ?
xyx+y,   Skalierungsfaktor:      Skalierung: Modus: x, Faktor: 1
Darstellungszeitraum ... ?
Vom - - bis: - -   Zeitraum: 16.06.2020 - 22.06.2020
Min/Max/Avg-Anzeige ... ?
Zeige MMA aktuell
Zeige MMA Monat
Zeige MMA alles
Zeige --A aktuell
Zeige --A Monat
Zeige --A alles
Keine MMA-Anzeige
MMA:
Average (ber die Originaldaten)
MMA-Basis: 16.06.2020 - 22.06.2020
Quicknavigation für Darstellung... ?
Tage:      1T, 2T, 3T, 5T -1T -2T -3T -5T +1T +2T +3T +5T
Wochen: 1W, 2W, 3W -1W -2W -3W +1W +2W +3W
Monate: 1M, 3M, 6M -1M -3M -6M +1M +3M +6M
Jahre:    1J, 3J, 5J, 10J -1J -3J -5J -10J +1J +3J +5J +10J
Nutze für die Darstellung ... ?
Originaldaten oder ...
Mittelwerte Minima Maxima auf...
Stundenbasis Tagesbasis Wochenbasis
Monatsbasis Jahresbasis      Datenbasis: Mittelwerte auf Stundenbasis
Darstellen als:
Statistik (Auto) Statistik J:M      Darstellung:
Zur Graphik,    zurück zur Übersicht aller Sensoren.
 
Tabellarische Datenbersicht: ?
 
Sensor: Nr:Datum:Temp:Abs-Feuchte:Windchill:Wind:
Aussen-T/F 1 16-06-2020 00:00:00 17.11667 C 12.6 g/m*3 17.12 C 0 km/h
2 16-06-2020 01:00:00 16.875 C 13.05 g/m*3 16.88 C 0 km/h
3 16-06-2020 02:00:00 16.45833 C 13.01 g/m*3 16.46 C 0 km/h
4 16-06-2020 03:00:00 16.2 C 12.97 g/m*3 16.2 C 0 km/h
5 16-06-2020 04:00:00 16.11667 C 13.03 g/m*3 16.12 C 0 km/h
6 16-06-2020 05:00:00 16.05833 C 12.99 g/m*3 16.06 C 0.26667 km/h
7 16-06-2020 06:00:00 15.94167 C 12.98 g/m*3 15.94 C 0.4 km/h
8 16-06-2020 07:00:00 16.18333 C 13.23 g/m*3 16.18 C 0.13333 km/h
9 16-06-2020 08:00:00 16.68333 C 13.63 g/m*3 16.68 C 2.13333 km/h
10 16-06-2020 09:00:00 17.125 C 14 g/m*3 17.13 C 2.66667 km/h
11 16-06-2020 10:00:00 17.93333 C 14.51 g/m*3 17.93 C 0.26667 km/h
12 16-06-2020 11:00:00 19.01667 C 14.61 g/m*3 19.02 C 1.86667 km/h
13 16-06-2020 12:00:00 19.91667 C 14.26 g/m*3 19.92 C 3.73333 km/h
14 16-06-2020 13:00:00 20.48333 C 13.87 g/m*3 20.48 C 6.55833 km/h
15 16-06-2020 14:00:00 21.13333 C 14.25 g/m*3 21.13 C 2.14167 km/h
16 16-06-2020 15:00:00 21.375 C 14.38 g/m*3 21.38 C 3.34167 km/h
17 16-06-2020 16:00:00 19.025 C 13.79 g/m*3 19.02 C 2.8 km/h
18 16-06-2020 17:00:00 18.39167 C 13.98 g/m*3 18.39 C 0.53333 km/h
19 16-06-2020 18:00:00 18.83333 C 14.33 g/m*3 18.83 C 2.4 km/h
20 16-06-2020 19:00:00 20.31667 C 14.92 g/m*3 20.32 C 6.13333 km/h
21 16-06-2020 20:00:00 20.65 C 14.66 g/m*3 20.65 C 2.01667 km/h
22 16-06-2020 21:00:00 19.10833 C 14 g/m*3 19.11 C 2.53333 km/h
23 16-06-2020 22:00:00 16.69167 C 12.83 g/m*3 16.69 C 1.46667 km/h
24 16-06-2020 23:00:00 15.40833 C 12.17 g/m*3 15.41 C 0.13333 km/h
25 17-06-2020 00:00:00 14.6 C 11.77 g/m*3 14.6 C 0 km/h
Sensor: Nr:Datum:Temp:Abs-Feuchte:Windchill:Wind:
Aussen-T/F 26 17-06-2020 01:00:00 14 C 11.46 g/m*3 14 C 0 km/h
27 17-06-2020 02:00:00 14.46667 C 11.91 g/m*3 14.47 C 0.26667 km/h
28 17-06-2020 03:00:00 14.55 C 11.99 g/m*3 14.55 C 0.8 km/h
29 17-06-2020 04:00:00 14.21667 C 11.85 g/m*3 14.22 C 0 km/h
30 17-06-2020 05:00:00 14.16667 C 11.82 g/m*3 14.17 C 0 km/h
31 17-06-2020 06:00:00 14.34167 C 11.95 g/m*3 14.34 C 0 km/h
32 17-06-2020 07:00:00 14.61667 C 12.15 g/m*3 14.62 C 0 km/h
33 17-06-2020 08:00:00 14.91667 C 12.38 g/m*3 14.92 C 0 km/h
34 17-06-2020 09:00:00 15.43333 C 12.77 g/m*3 15.43 C 0 km/h
35 17-06-2020 10:00:00 16.63333 C 13.44 g/m*3 16.63 C 2 km/h
36 17-06-2020 11:00:00 18.50833 C 13.86 g/m*3 18.51 C 5.34167 km/h
37 17-06-2020 12:00:00 20.51667 C 14.1 g/m*3 20.52 C 5.35 km/h
38 17-06-2020 13:00:00 21.81667 C 14.26 g/m*3 21.82 C 5.08333 km/h
39 17-06-2020 14:00:00 22.75 C 14.25 g/m*3 22.75 C 3.6 km/h
40 17-06-2020 15:00:00 23.05833 C 15.09 g/m*3 23.06 C 5.35 km/h
41 17-06-2020 16:00:00 20.49167 C 15.93 g/m*3 20.49 C 2.4 km/h
42 17-06-2020 17:00:00 21.50833 C 16.6 g/m*3 21.51 C 1.06667 km/h
43 17-06-2020 18:00:00 23.34167 C 15.4 g/m*3 23.34 C 3.6 km/h
44 17-06-2020 19:00:00 19.65 C 13.91 g/m*3 19.65 C 4.84167 km/h
45 17-06-2020 20:00:00 17.175 C 13.49 g/m*3 17.18 C 1.06667 km/h
46 17-06-2020 21:00:00 16.54167 C 13.28 g/m*3 16.54 C 4.13333 km/h
47 17-06-2020 22:00:00 16.18333 C 13.09 g/m*3 16.18 C 1.73333 km/h
48 17-06-2020 23:00:00 15.53333 C 12.58 g/m*3 15.53 C 4.41667 km/h
49 18-06-2020 00:00:00 15.11667 C 12.35 g/m*3 15.12 C 1.06667 km/h
50 18-06-2020 01:00:00 14.76667 C 12.08 g/m*3 14.77 C 2.93333 km/h
Sensor: Nr:Datum:Temp:Abs-Feuchte:Windchill:Wind:
Aussen-T/F 51 18-06-2020 02:00:00 14.41667 C 11.87 g/m*3 14.42 C 3.20833 km/h
52 18-06-2020 03:00:00 14.4 C 11.87 g/m*3 14.4 C 6.56667 km/h
53 18-06-2020 04:00:00 14.3 C 11.79 g/m*3 14.3 C 4.14167 km/h
54 18-06-2020 05:00:00 14.1 C 11.65 g/m*3 14.1 C 2.53333 km/h
55 18-06-2020 06:00:00 13.96667 C 11.56 g/m*3 13.97 C 4.13333 km/h
56 18-06-2020 07:00:00 14.34167 C 11.82 g/m*3 14.34 C 2.13333 km/h
57 18-06-2020 08:00:00 15.325 C 12.22 g/m*3 15.33 C 4.95833 km/h
58 18-06-2020 09:00:00 16.45833 C 12.3 g/m*3 16.46 C 6.84167 km/h
59 18-06-2020 10:00:00 17.675 C 12.44 g/m*3 17.68 C 6.85 km/h
60 18-06-2020 11:00:00 18.75 C 12.5 g/m*3 18.75 C 6.175 km/h
61 18-06-2020 12:00:00 19.71667 C 12.32 g/m*3 19.72 C 10.21667 km/h
62 18-06-2020 13:00:00 20.79167 C 11.99 g/m*3 20.79 C 12.9 km/h
63 18-06-2020 14:00:00 22.2 C 12.04 g/m*3 22.2 C 11.03333 km/h
64 18-06-2020 15:00:00 23.54167 C 11.68 g/m*3 23.54 C 10.35 km/h
65 18-06-2020 16:00:00 25.09167 C 11.49 g/m*3 25.09 C 11.56667 km/h
66 18-06-2020 17:00:00 24.875 C 11.28 g/m*3 24.88 C 15.83333 km/h
67 18-06-2020 18:00:00 23.86667 C 10.89 g/m*3 23.87 C 15.03333 km/h
68 18-06-2020 19:00:00 23.89167 C 11.55 g/m*3 23.89 C 10.76667 km/h
69 18-06-2020 20:00:00 23.2 C 11.36 g/m*3 23.2 C 9.95 km/h
70 18-06-2020 21:00:00 20.63333 C 12.46 g/m*3 20.63 C 3.875 km/h
71 18-06-2020 22:00:00 17.20833 C 11.79 g/m*3 17.21 C 5.06667 km/h
72 18-06-2020 23:00:00 15.73333 C 11.55 g/m*3 15.73 C 0.93333 km/h
73 19-06-2020 00:00:00 15.21667 C 11.5 g/m*3 15.22 C 1.875 km/h
74 19-06-2020 01:00:00 14.68333 C 11.17 g/m*3 14.68 C 0.26667 km/h
75 19-06-2020 02:00:00 13.525 C 10.73 g/m*3 13.53 C 0.53333 km/h
Sensor: Nr:Datum:Temp:Abs-Feuchte:Windchill:Wind:
Aussen-T/F 76 19-06-2020 03:00:00 12.875 C 10.47 g/m*3 12.88 C 0.4 km/h
77 19-06-2020 04:00:00 12.33333 C 10.22 g/m*3 12.33 C 1.33333 km/h
78 19-06-2020 05:00:00 12.225 C 10.23 g/m*3 12.23 C 1.06667 km/h
79 19-06-2020 06:00:00 12.575 C 10.49 g/m*3 12.58 C 0.66667 km/h
80 19-06-2020 07:00:00 13.64167 C 11.21 g/m*3 13.64 C 0.53333 km/h
81 19-06-2020 08:00:00 15.75 C 11.83 g/m*3 15.75 C 8.475 km/h
82 19-06-2020 09:00:00 17.55 C 11.91 g/m*3 17.55 C 9.81667 km/h
83 19-06-2020 10:00:00 19.15833 C 12.35 g/m*3 19.16 C 5.75 km/h
84 19-06-2020 11:00:00 20.85 C 12.12 g/m*3 20.85 C 9.94167 km/h
85 19-06-2020 12:00:00 21.90833 C 11.94 g/m*3 21.91 C 11.96667 km/h
86 19-06-2020 13:00:00 21.50833 C 12.14 g/m*3 21.51 C 6.30833 km/h
87 19-06-2020 14:00:00 22.34167 C 11.58 g/m*3 22.34 C 8.71667 km/h
88 19-06-2020 15:00:00 22.26667 C 11.45 g/m*3 22.27 C 13.96667 km/h
89 19-06-2020 16:00:00 16.48333 C 12.44 g/m*3 16.48 C 9.4 km/h
90 19-06-2020 17:00:00 16.29167 C 13.14 g/m*3 16.29 C 10.60833 km/h
91 19-06-2020 18:00:00 18.11667 C 14.22 g/m*3 18.12 C 4.40833 km/h
92 19-06-2020 19:00:00 18.90833 C 14.32 g/m*3 18.91 C 3.06667 km/h
93 19-06-2020 20:00:00 18.16667 C 14.01 g/m*3 18.17 C 6.05833 km/h
94 19-06-2020 21:00:00 16.075 C 12.53 g/m*3 16.08 C 7.40833 km/h
95 19-06-2020 22:00:00 14.81667 C 11.89 g/m*3 14.82 C 3.73333 km/h
96 19-06-2020 23:00:00 14.175 C 11.54 g/m*3 14.18 C 0.53333 km/h
97 20-06-2020 00:00:00 13.58333 C 11.18 g/m*3 13.58 C 0.13333 km/h
98 20-06-2020 01:00:00 13.475 C 11.21 g/m*3 13.48 C 0.13333 km/h
99 20-06-2020 02:00:00 13.35833 C 11.13 g/m*3 13.36 C 0.66667 km/h
100 20-06-2020 03:00:00 12.95833 C 10.86 g/m*3 12.96 C 0 km/h
Sensor: Nr:Datum:Temp:Abs-Feuchte:Windchill:Wind:
Aussen-T/F 101 20-06-2020 04:00:00 12.59167 C 10.65 g/m*3 12.59 C 0.4 km/h
102 20-06-2020 05:00:00 12.475 C 10.63 g/m*3 12.48 C 0.66667 km/h
103 20-06-2020 06:00:00 12.64167 C 10.76 g/m*3 12.64 C 3.74167 km/h
104 20-06-2020 07:00:00 13.05 C 11.03 g/m*3 13.05 C 4.00833 km/h
105 20-06-2020 08:00:00 14.125 C 11.87 g/m*3 14.13 C 0.4 km/h
106 20-06-2020 09:00:00 15.35833 C 12.66 g/m*3 15.36 C 0.8 km/h
107 20-06-2020 10:00:00 17.56667 C 13.3 g/m*3 17.57 C 2.275 km/h
108 20-06-2020 11:00:00 20.11667 C 12.86 g/m*3 20.12 C 6.3 km/h
109 20-06-2020 12:00:00 19.76667 C 12.8 g/m*3 19.77 C 4.66667 km/h
110 20-06-2020 13:00:00 19.59167 C 13.27 g/m*3 19.59 C 4 km/h
111 20-06-2020 14:00:00 19.74167 C 12.84 g/m*3 19.74 C 3.075 km/h
112 20-06-2020 15:00:00 20.20833 C 12.81 g/m*3 20.21 C 2.8 km/h
113 20-06-2020 16:00:00 22.89167 C 12.07 g/m*3 22.89 C 6.96667 km/h
114 20-06-2020 17:00:00 22.33333 C 11.36 g/m*3 22.33 C 5.90833 km/h
115 20-06-2020 18:00:00 21.06667 C 12.86 g/m*3 21.07 C 7.65 km/h
116 20-06-2020 19:00:00 19.625 C 12.88 g/m*3 19.63 C 5.9 km/h
117 20-06-2020 20:00:00 19.04167 C 13.38 g/m*3 19.04 C 1.86667 km/h
118 20-06-2020 21:00:00 18.36667 C 13.15 g/m*3 18.37 C 2.93333 km/h
119 20-06-2020 22:00:00 17 C 12.64 g/m*3 17 C 2.53333 km/h
120 20-06-2020 23:00:00 15.69167 C 11.88 g/m*3 15.69 C 2.26667 km/h
121 21-06-2020 00:00:00 14.48333 C 11.37 g/m*3 14.48 C 0.66667 km/h
122 21-06-2020 01:00:00 13.80833 C 11.14 g/m*3 13.81 C 0.53333 km/h
123 21-06-2020 02:00:00 13.24167 C 10.84 g/m*3 13.24 C 0.8 km/h
124 21-06-2020 03:00:00 12.53333 C 10.46 g/m*3 12.53 C 0.13333 km/h
125 21-06-2020 04:00:00 11.80833 C 10.03 g/m*3 11.81 C 0 km/h
Sensor: Nr:Datum:Temp:Abs-Feuchte:Windchill:Wind:
Aussen-T/F 126 21-06-2020 05:00:00 12.2 C 10.36 g/m*3 12.2 C 0.93333 km/h
127 21-06-2020 06:00:00 12.36667 C 10.48 g/m*3 12.37 C 0.26667 km/h
128 21-06-2020 07:00:00 12.7 C 10.74 g/m*3 12.7 C 4.26667 km/h
129 21-06-2020 08:00:00 13.33333 C 11.21 g/m*3 13.33 C 2.13333 km/h
130 21-06-2020 09:00:00 14.425 C 11.89 g/m*3 14.43 C 0 km/h
131 21-06-2020 10:00:00 17.05 C 13.35 g/m*3 17.05 C 0 km/h
132 21-06-2020 11:00:00 21.25 C 12.84 g/m*3 21.25 C 1.06667 km/h
133 21-06-2020 12:00:00 22.64167 C 11.85 g/m*3 22.64 C 8.61667 km/h
134 21-06-2020 13:00:00 23.65833 C 11.45 g/m*3 23.66 C 8.60833 km/h
135 21-06-2020 14:00:00 24.55 C 11.65 g/m*3 24.55 C 10.34167 km/h
136 21-06-2020 15:00:00 26.325 C 11.59 g/m*3 26.33 C 11.16667 km/h
137 21-06-2020 16:00:00 27.7 C 11.37 g/m*3 27.7 C 13.28333 km/h
138 21-06-2020 17:00:00 27.85 C 11.01 g/m*3 27.85 C 13.16667 km/h
139 21-06-2020 18:00:00 26.84167 C 11.57 g/m*3 26.84 C 10.75833 km/h
140 21-06-2020 19:00:00 25.79167 C 12.73 g/m*3 25.79 C 7 km/h
141 21-06-2020 20:00:00 23.65 C 13.86 g/m*3 23.65 C 3.6 km/h
142 21-06-2020 21:00:00 22.14167 C 13 g/m*3 22.14 C 4.40833 km/h
143 21-06-2020 22:00:00 19.11667 C 12.44 g/m*3 19.12 C 5.2 km/h
144 21-06-2020 23:00:00 17.8 C 12.45 g/m*3 17.8 C 2.93333 km/h
145 22-06-2020 00:00:00 17.38333 C 12.46 g/m*3 17.38 C 0 km/h
146 22-06-2020 01:00:00 16.58333 C 12.09 g/m*3 16.58 C 3.6 km/h
147 22-06-2020 02:00:00 16.1 C 11.94 g/m*3 16.1 C 2.4 km/h
148 22-06-2020 03:00:00 15.45833 C 11.73 g/m*3 15.46 C 1.33333 km/h
149 22-06-2020 04:00:00 16.00833 C 12.05 g/m*3 16.01 C 0.8 km/h
150 22-06-2020 05:00:00 16.46667 C 11.89 g/m*3 16.47 C 9.8 km/h
Sensor: Nr:Datum:Temp:Abs-Feuchte:Windchill:Wind:
Aussen-T/F 151 22-06-2020 06:00:00 15.53333 C 11.28 g/m*3 15.53 C 5.075 km/h
152 22-06-2020 07:00:00 15.29167 C 11.06 g/m*3 15.29 C 5.375 km/h
153 22-06-2020 08:00:00 15.24167 C 11.12 g/m*3 15.24 C 4.41667 km/h
154 22-06-2020 09:00:00 16.175 C 11.46 g/m*3 16.18 C 4.54167 km/h
155 22-06-2020 10:00:00 16.90833 C 11.64 g/m*3 16.91 C 7.11667 km/h
156 22-06-2020 11:00:00 17.59167 C 12 g/m*3 17.59 C 6.56667 km/h
157 22-06-2020 12:00:00 18.625 C 12.31 g/m*3 18.63 C 5.88333 km/h
158 22-06-2020 13:00:00 19.825 C 12.67 g/m*3 19.83 C 8.05833 km/h
159 22-06-2020 14:00:00 21.15 C 12.58 g/m*3 21.15 C 9.95833 km/h
160 22-06-2020 15:00:00 22.96667 C 12.33 g/m*3 22.97 C 9.825 km/h
161 22-06-2020 16:00:00 23.14167 C 11.85 g/m*3 23.14 C 8.74167 km/h
162 22-06-2020 17:00:00 24.55833 C 10.14 g/m*3 24.56 C 9.80833 km/h
163 22-06-2020 18:00:00 25.1 C 9.16 g/m*3 25.1 C 9.81667 km/h
164 22-06-2020 19:00:00 24.74167 C 9.57 g/m*3 24.74 C 6.95833 km/h
165 22-06-2020 20:00:00 23.83333 C 9.68 g/m*3 23.83 C 3.6 km/h
166 22-06-2020 21:00:00 20.88333 C 10.93 g/m*3 20.88 C 3.06667 km/h
167 22-06-2020 22:00:00 17.19167 C 10.43 g/m*3 17.19 C 6.33333 km/h
168 22-06-2020 23:00:00 15.35 C 10.42 g/m*3 15.35 C 0 km/h

Maximal/Minimal-Werte vom 16.06.2020 - 22.06.2020

Sensor Min Max Avg
Temp
(Aussen-T/F)
11.7 °C
21-06-2020  04:25:00
28.2 °C
21-06-2020  16:30:00
17.94 °C
Abs-Feuchte
(Aussen-T/F)
9.16 g/m*3
22-06-2020  18:00:00
16.6 g/m*3
17-06-2020  17:00:00
12.19 g/m*3
Windchill
(Aussen-T/F)
11.81 C
21-06-2020  04:00:00
27.85 C
21-06-2020  17:00:00
17.83 C

Die Daten stammen von einer Davis Vantage Pro 2 Wetter-Station und werden unter Linux mit der Software wview2wettercgi und aufbereitet. Alle Angaben erfolgen ohne Gewähr für ihre Vollständigkeit oder Richtigkeit.
Kontakt: Rainer Krienke krienke@uni-koblenz.de . Meine Webseiten an der Uni Koblenz oder privat.
Version: $Revision: 0.78 $